createdAt,value
2017-10-02T00:01:37.473Z,5.30
2017-10-02T00:04:04.047Z,5.50
2017-10-02T00:06:30.632Z,6.40
2017-10-02T00:08:57.196Z,4.33
2017-10-02T00:11:23.905Z,5.97
2017-10-02T00:13:50.480Z,7.07
2017-10-02T00:16:17.056Z,3.43
2017-10-02T00:18:43.639Z,7.47
2017-10-02T00:21:10.205Z,4.87
2017-10-02T00:23:36.786Z,6.10
2017-10-02T00:26:03.381Z,4.00
2017-10-02T00:28:29.953Z,5.80
2017-10-02T00:30:56.533Z,7.60
2017-10-02T00:33:23.111Z,6.53
2017-10-02T00:35:49.677Z,8.03
2017-10-02T00:38:16.363Z,5.83
2017-10-02T00:40:42.928Z,5.60
2017-10-02T00:43:09.506Z,5.70
2017-10-02T00:45:36.108Z,6.67
2017-10-02T00:48:02.681Z,3.20
2017-10-02T00:50:29.433Z,4.40
2017-10-02T00:52:56.001Z,5.87
2017-10-02T00:55:22.574Z,4.00
2017-10-02T00:57:49.158Z,5.07
2017-10-02T01:00:15.736Z,6.93
2017-10-02T01:02:42.304Z,4.43
2017-10-02T01:05:08.880Z,4.03
2017-10-02T01:07:35.460Z,5.67
2017-10-02T01:10:02.033Z,5.40
2017-10-02T01:12:28.765Z,6.07
2017-10-02T01:14:55.340Z,3.73
2017-10-02T01:17:21.921Z,6.17
2017-10-02T01:19:48.496Z,3.27
2017-10-02T01:22:15.073Z,3.17
2017-10-02T01:24:41.656Z,9.70
2017-10-02T01:27:08.248Z,5.23
2017-10-02T01:29:34.829Z,3.63
2017-10-02T01:32:01.404Z,6.17
2017-10-02T01:34:27.974Z,2.90
2017-10-02T01:36:54.568Z,9.77
2017-10-02T01:39:21.152Z,5.97
2017-10-02T01:41:47.730Z,8.10
2017-10-02T01:44:14.305Z,4.80
2017-10-02T01:46:40.885Z,3.10
2017-10-02T01:49:07.457Z,3.10
2017-10-02T01:51:34.028Z,5.17
2017-10-02T01:54:00.612Z,4.60
2017-10-02T01:56:27.188Z,5.23
2017-10-02T01:58:53.771Z,9.67
2017-10-02T02:01:20.337Z,6.03
2017-10-02T02:03:47.064Z,4.80
2017-10-02T02:06:13.636Z,4.23
2017-10-02T02:08:40.216Z,6.73
2017-10-02T02:11:06.801Z,5.93
2017-10-02T02:13:33.376Z,8.17
2017-10-02T02:15:59.961Z,2.60
2017-10-02T02:18:26.525Z,5.63
2017-10-02T02:20:53.125Z,7.77
2017-10-02T02:23:19.697Z,5.10
2017-10-02T02:25:46.276Z,7.57
2017-10-02T02:28:12.996Z,7.20
2017-10-02T02:30:39.580Z,3.33
2017-10-02T02:33:06.153Z,5.27
2017-10-02T02:35:32.771Z,4.67
2017-10-02T02:37:59.333Z,4.20
2017-10-02T02:40:25.929Z,5.13
2017-10-02T02:42:52.500Z,6.23
2017-10-02T02:45:19.095Z,4.33
2017-10-02T02:47:45.666Z,5.97
2017-10-02T02:50:12.244Z,3.67
2017-10-02T02:52:38.821Z,7.17
2017-10-02T02:55:05.395Z,5.97
2017-10-02T02:57:31.973Z,3.40
2017-10-02T02:59:58.549Z,3.77
2017-10-02T03:02:25.134Z,5.37
2017-10-02T03:04:51.705Z,3.77
2017-10-02T03:07:18.285Z,7.40
2017-10-02T03:09:44.881Z,3.77
2017-10-02T03:12:11.457Z,3.30
2017-10-02T03:14:38.044Z,3.50
2017-10-02T03:17:04.633Z,5.53
2017-10-02T03:19:31.242Z,8.60
2017-10-02T03:21:57.821Z,5.37
2017-10-02T03:24:24.392Z,6.93
2017-10-02T03:26:50.965Z,5.30
2017-10-02T03:29:17.540Z,4.27
2017-10-02T03:31:44.121Z,9.70
2017-10-02T03:34:10.699Z,7.50
2017-10-02T03:36:37.333Z,5.83
2017-10-02T03:39:03.908Z,8.87
2017-10-02T03:41:30.507Z,4.97
2017-10-02T03:43:57.118Z,6.00
2017-10-02T03:46:23.721Z,6.00
2017-10-02T03:48:50.276Z,5.20
2017-10-02T03:51:16.852Z,4.47
2017-10-02T03:53:43.584Z,8.13
2017-10-02T03:56:10.156Z,9.80
2017-10-02T03:58:36.729Z,8.13
2017-10-02T04:01:03.304Z,5.90
2017-10-02T04:03:29.946Z,6.00
2017-10-02T04:05:56.820Z,6.67
2017-10-02T04:08:23.392Z,3.80
2017-10-02T04:10:49.969Z,8.83
2017-10-02T04:13:16.551Z,7.87
2017-10-02T04:15:43.140Z,8.43
2017-10-02T04:18:09.752Z,5.13
2017-10-02T04:20:36.345Z,6.43
2017-10-02T04:23:02.912Z,3.70
2017-10-02T04:25:29.493Z,5.77
2017-10-02T04:27:56.076Z,11.23
2017-10-02T04:30:22.659Z,9.20
2017-10-02T04:32:49.224Z,5.50
2017-10-02T04:35:16.201Z,5.77
2017-10-02T04:37:42.781Z,9.93
2017-10-02T04:40:09.354Z,7.07
2017-10-02T04:42:35.933Z,8.30
2017-10-02T04:45:02.501Z,6.90
2017-10-02T04:47:29.090Z,14.30
2017-10-02T04:49:55.656Z,8.67
2017-10-02T04:52:22.247Z,5.40
2017-10-02T04:54:48.820Z,6.53
2017-10-02T04:57:15.405Z,13.37
2017-10-02T04:59:41.977Z,6.17
2017-10-02T05:02:08.568Z,5.87
2017-10-02T05:04:35.151Z,6.10
2017-10-02T05:07:01.737Z,7.60
2017-10-02T05:09:28.313Z,6.80
2017-10-02T05:11:54.888Z,9.90
2017-10-02T05:14:21.484Z,9.93
2017-10-02T05:16:48.069Z,7.17
2017-10-02T05:19:14.641Z,5.10
2017-10-02T05:21:41.217Z,5.80
2017-10-02T05:24:07.800Z,4.60
2017-10-02T05:26:34.379Z,6.23
2017-10-02T05:29:01.051Z,5.20
2017-10-02T05:31:27.649Z,5.30
2017-10-02T05:33:54.224Z,6.53
2017-10-02T05:36:20.812Z,6.20
2017-10-02T05:38:47.476Z,4.97
2017-10-02T05:41:14.053Z,5.27
2017-10-02T05:43:40.624Z,5.03
2017-10-02T05:46:07.233Z,5.60
2017-10-02T05:48:33.813Z,8.40
2017-10-02T05:51:00.392Z,3.80
2017-10-02T05:53:26.966Z,4.13
2017-10-02T05:55:53.552Z,4.80
2017-10-02T05:58:20.130Z,5.33
2017-10-02T06:00:46.713Z,5.20
2017-10-02T06:03:13.288Z,5.17
2017-10-02T06:05:39.872Z,7.60
2017-10-02T06:08:06.445Z,3.90
2017-10-02T06:10:33.021Z,5.93
2017-10-02T06:12:59.597Z,3.83
2017-10-02T06:15:26.178Z,4.10
2017-10-02T06:17:52.753Z,3.60
2017-10-02T06:20:19.360Z,5.37
2017-10-02T06:22:45.933Z,6.40
2017-10-02T06:25:12.504Z,4.97
2017-10-02T06:27:39.094Z,7.50
2017-10-02T06:30:05.665Z,3.57
2017-10-02T06:32:32.269Z,5.80
2017-10-02T06:34:58.841Z,9.13
2017-10-02T06:37:25.421Z,5.50
2017-10-02T06:39:52.105Z,9.57
2017-10-02T06:42:18.683Z,5.13
2017-10-02T06:44:45.252Z,3.40
2017-10-02T06:47:12.156Z,4.53
2017-10-02T06:49:38.726Z,12.47
2017-10-02T06:52:05.294Z,4.30
2017-10-02T06:54:31.892Z,6.33
2017-10-02T06:56:58.460Z,5.30
2017-10-02T06:59:25.040Z,3.60
2017-10-02T07:01:51.653Z,5.33
2017-10-02T07:04:18.289Z,7.83
2017-10-02T07:06:44.873Z,4.30
2017-10-02T07:09:11.468Z,5.43
2017-10-02T07:11:38.128Z,4.13
2017-10-02T07:14:04.706Z,4.30
2017-10-02T07:16:31.281Z,8.33
2017-10-02T07:18:57.869Z,4.93
2017-10-02T07:21:24.585Z,6.40
2017-10-02T07:23:51.162Z,4.13
2017-10-02T07:26:17.770Z,4.13
2017-10-02T07:28:44.328Z,5.47
2017-10-02T07:31:10.921Z,3.73
2017-10-02T07:33:37.497Z,4.70
2017-10-02T07:36:04.068Z,2.77
2017-10-02T07:38:30.653Z,3.17
2017-10-02T07:40:57.234Z,2.90
2017-10-02T07:43:23.840Z,3.57
2017-10-02T07:45:50.450Z,2.97
2017-10-02T07:48:17.025Z,5.53
2017-10-02T07:50:43.614Z,5.47
2017-10-02T07:53:10.189Z,4.73
2017-10-02T07:55:36.784Z,5.33
2017-10-02T07:58:03.357Z,3.80
2017-10-02T08:00:29.934Z,3.50
2017-10-02T08:02:56.510Z,5.97
2017-10-02T08:05:23.085Z,3.93
2017-10-02T08:07:49.670Z,3.53
2017-10-02T08:10:16.242Z,5.80
2017-10-02T08:12:42.817Z,6.63
2017-10-02T08:15:09.390Z,3.83
2017-10-02T08:17:36.065Z,4.40
2017-10-02T08:20:02.641Z,4.93
2017-10-02T08:22:29.317Z,5.97
2017-10-02T08:24:55.905Z,5.87
2017-10-02T08:27:22.477Z,4.23
2017-10-02T08:29:49.200Z,5.10
2017-10-02T08:32:15.781Z,3.97
2017-10-02T08:34:42.357Z,5.97
2017-10-02T08:37:08.963Z,2.60
2017-10-02T08:39:35.544Z,3.80
2017-10-02T08:42:02.153Z,3.00
2017-10-02T08:44:36.570Z,3.37
2017-10-02T08:47:09.230Z,5.10
2017-10-02T08:49:35.957Z,2.90
2017-10-02T08:52:02.533Z,2.37
2017-10-02T08:54:29.101Z,2.97
2017-10-02T08:56:56.733Z,2.87
2017-10-02T08:59:23.325Z,3.80
2017-10-02T09:01:57.024Z,3.87
2017-10-02T09:04:23.633Z,2.80
2017-10-02T09:06:50.225Z,2.70
2017-10-02T09:09:16.809Z,2.60
2017-10-02T09:11:43.485Z,2.63
2017-10-02T09:14:10.074Z,3.07
2017-10-02T09:16:36.648Z,2.50
2017-10-02T09:19:03.353Z,2.70
2017-10-02T09:21:29.933Z,2.50
2017-10-02T09:24:03.456Z,4.10
2017-10-02T09:26:30.032Z,2.80
2017-10-02T09:28:56.624Z,2.37
2017-10-02T09:31:33.309Z,2.97
2017-10-02T09:33:59.887Z,2.23
2017-10-02T09:36:26.461Z,2.30
2017-10-02T09:38:53.061Z,4.03
2017-10-02T09:41:19.665Z,2.73
2017-10-02T09:43:46.240Z,2.47
2017-10-02T09:46:12.813Z,2.10
2017-10-02T09:48:39.397Z,1.93
2017-10-02T09:51:05.965Z,2.67
2017-10-02T09:53:32.545Z,4.03
2017-10-02T09:55:59.144Z,2.23
2017-10-02T09:58:25.771Z,2.47
2017-10-02T10:00:52.367Z,5.27
2017-10-02T10:03:25.463Z,3.00
2017-10-02T10:05:58.196Z,2.17
2017-10-02T10:08:24.831Z,2.10
2017-10-02T10:10:51.521Z,2.00
2017-10-02T10:13:18.101Z,4.00
2017-10-02T10:15:44.673Z,2.40
2017-10-02T10:18:11.256Z,1.90
2017-10-02T10:20:37.828Z,2.40
2017-10-02T10:23:04.406Z,2.40
2017-10-02T10:25:30.982Z,1.67
2017-10-02T10:27:57.669Z,1.97
2017-10-02T10:30:24.241Z,1.70
2017-10-02T10:32:50.825Z,1.67
2017-10-02T10:35:17.545Z,1.50
2017-10-02T10:37:44.120Z,1.40
2017-10-02T10:40:10.762Z,2.30
2017-10-02T10:42:37.337Z,2.20
2017-10-02T10:45:03.910Z,1.57
2017-10-02T10:47:30.516Z,1.67
2017-10-02T10:49:57.094Z,1.30
2017-10-02T10:52:23.692Z,1.40
2017-10-02T10:54:50.348Z,1.77
2017-10-02T10:57:16.925Z,2.50
2017-10-02T10:59:43.502Z,1.30
2017-10-02T11:02:10.140Z,3.77
2017-10-02T11:04:36.764Z,1.60
2017-10-02T11:07:03.341Z,2.53
2017-10-02T11:09:30.067Z,1.60
2017-10-02T11:11:56.618Z,1.43
2017-10-02T11:14:23.192Z,2.20
2017-10-02T11:16:49.777Z,2.90
2017-10-02T11:19:16.352Z,2.13
2017-10-02T11:21:42.949Z,1.40
2017-10-02T11:24:09.517Z,1.90
2017-10-02T11:26:36.111Z,1.20
2017-10-02T11:29:02.676Z,1.40
2017-10-02T11:31:29.253Z,1.13
2017-10-02T11:33:55.832Z,1.40
2017-10-02T11:36:22.421Z,1.27
2017-10-02T11:38:49.004Z,1.37
2017-10-02T11:41:15.592Z,1.57
2017-10-02T11:43:42.181Z,1.70
2017-10-02T11:46:08.761Z,2.67
2017-10-02T11:48:35.438Z,7.90
2017-10-02T11:51:01.989Z,2.20
2017-10-02T11:53:28.578Z,2.17
2017-10-02T11:55:55.149Z,3.10
2017-10-02T11:58:21.734Z,2.27
2017-10-02T12:00:48.310Z,1.83
2017-10-02T12:03:14.916Z,3.90
2017-10-02T12:05:41.510Z,12.40
2017-10-02T12:08:08.097Z,11.07
2017-10-02T12:10:34.681Z,8.07
2017-10-02T12:13:01.263Z,13.67
2017-10-02T12:15:27.945Z,13.53
2017-10-02T12:17:54.523Z,7.43
2017-10-02T12:20:21.095Z,9.67
2017-10-02T12:22:47.831Z,6.27
2017-10-02T12:25:14.415Z,11.37
2017-10-02T12:27:41.041Z,12.07
2017-10-02T12:30:07.633Z,12.50
2017-10-02T12:32:34.204Z,9.93
2017-10-02T12:35:00.833Z,13.87
2017-10-02T12:37:27.416Z,10.93
2017-10-02T12:39:53.996Z,14.13
2017-10-02T12:42:20.640Z,12.90
2017-10-02T12:44:47.196Z,7.37
2017-10-02T12:47:13.777Z,13.07
2017-10-02T12:49:40.369Z,13.40
2017-10-02T12:52:06.946Z,14.37
2017-10-02T12:54:33.556Z,17.47
2017-10-02T12:57:00.146Z,11.60
2017-10-02T12:59:26.720Z,13.53
2017-10-02T13:01:53.313Z,15.43
2017-10-02T13:04:19.892Z,13.30
2017-10-02T13:06:46.624Z,8.50
2017-10-02T13:09:13.205Z,12.80
2017-10-02T13:11:39.801Z,12.53
2017-10-02T13:14:06.372Z,13.33
2017-10-02T13:16:32.952Z,12.50
2017-10-02T13:18:59.544Z,13.10
2017-10-02T13:21:26.121Z,13.33
2017-10-02T13:23:52.729Z,16.87
2017-10-02T13:26:19.309Z,15.43
2017-10-02T13:28:45.959Z,11.37
2017-10-02T13:31:12.521Z,23.10
2017-10-02T13:33:39.099Z,18.03
2017-10-02T13:36:05.833Z,19.10
2017-10-02T13:38:32.415Z,16.80
2017-10-02T13:40:58.988Z,13.77
2017-10-02T13:43:25.580Z,14.60
2017-10-02T13:45:52.172Z,13.23
2017-10-02T13:48:18.884Z,20.00
2017-10-02T13:50:45.461Z,14.97
2017-10-02T13:53:12.047Z,13.03
2017-10-02T13:55:38.649Z,10.17
2017-10-02T13:58:05.213Z,15.10
2017-10-02T14:00:31.802Z,10.27
2017-10-02T14:02:58.419Z,14.13
2017-10-02T14:05:25.014Z,17.67
2017-10-02T14:07:51.618Z,12.37
2017-10-02T14:10:18.217Z,15.97
2017-10-02T14:12:44.808Z,14.97
2017-10-02T14:15:11.389Z,14.17
2017-10-02T14:17:37.974Z,13.33
2017-10-02T14:20:04.558Z,19.13
2017-10-02T14:22:31.138Z,18.87
2017-10-02T14:24:57.724Z,14.03
2017-10-02T14:27:24.305Z,17.97
2017-10-02T14:29:50.908Z,12.00
2017-10-02T14:32:17.490Z,15.70
2017-10-02T14:34:44.068Z,18.47
2017-10-02T14:37:10.653Z,16.73
2017-10-02T14:39:37.229Z,12.07
2017-10-02T14:42:03.851Z,23.33
2017-10-02T14:44:30.436Z,17.73
2017-10-02T14:46:57.028Z,15.80
2017-10-02T14:49:23.612Z,19.60
2017-10-02T14:51:50.201Z,15.17
2017-10-02T14:54:16.801Z,12.60
2017-10-02T14:56:43.388Z,11.43
2017-10-02T14:59:09.980Z,17.07
2017-10-02T15:01:37.040Z,11.53
2017-10-02T15:04:03.609Z,20.17
2017-10-02T15:06:30.205Z,22.97
2017-10-02T15:08:56.776Z,15.40
2017-10-02T15:11:23.390Z,22.37
2017-10-02T15:13:49.965Z,20.40
2017-10-02T15:16:16.561Z,12.80
2017-10-02T15:18:43.144Z,17.20
2017-10-02T15:21:09.720Z,14.60
2017-10-02T15:23:36.317Z,13.17
2017-10-02T15:26:02.906Z,14.17
2017-10-02T15:28:29.524Z,20.70
2017-10-02T15:30:56.097Z,20.77
2017-10-02T15:33:32.553Z,16.70
2017-10-02T15:35:59.137Z,18.10
2017-10-02T15:38:25.721Z,14.33
2017-10-02T15:40:52.432Z,16.50
2017-10-02T15:43:22.647Z,14.57
2017-10-02T15:45:49.244Z,17.10
2017-10-02T15:48:15.845Z,17.63
2017-10-02T15:50:42.428Z,18.13
2017-10-02T15:53:09.004Z,15.10
2017-10-02T15:55:35.588Z,22.90
2017-10-02T15:58:02.528Z,17.77
2017-10-02T16:00:29.109Z,19.10
2017-10-02T16:02:56.492Z,22.07
2017-10-02T16:05:23.374Z,16.33
2017-10-02T16:07:49.960Z,21.07
2017-10-02T16:10:16.536Z,18.27
2017-10-02T16:12:43.305Z,19.03
2017-10-02T16:15:09.908Z,19.63
2017-10-02T16:17:36.493Z,14.53
2017-10-02T16:20:03.077Z,14.80
2017-10-02T16:22:36.623Z,25.43
2017-10-02T16:25:10.218Z,17.50
2017-10-02T16:27:37.181Z,17.30
2017-10-02T16:30:03.809Z,16.80
2017-10-02T16:32:30.396Z,19.13
2017-10-02T16:34:56.976Z,17.47
2017-10-02T16:37:23.579Z,20.37
2017-10-02T16:39:50.160Z,14.40
2017-10-02T16:42:16.741Z,22.90
2017-10-02T16:44:43.318Z,19.47
2017-10-02T16:47:09.897Z,17.30
2017-10-02T16:49:36.625Z,14.70
2017-10-02T16:52:03.205Z,18.63
2017-10-02T16:54:29.785Z,17.40
2017-10-02T16:56:56.400Z,20.13
2017-10-02T16:59:22.969Z,15.63
2017-10-02T17:01:49.556Z,22.80
2017-10-02T17:04:16.236Z,20.80
2017-10-02T17:06:42.853Z,17.43
2017-10-02T17:09:09.438Z,20.73
2017-10-02T17:11:36.053Z,15.50
2017-10-02T17:14:02.629Z,16.00
2017-10-02T17:16:29.586Z,17.53
2017-10-02T17:18:56.150Z,20.63
2017-10-02T17:21:22.736Z,20.73
2017-10-02T17:23:49.480Z,15.03
2017-10-02T17:26:16.061Z,18.90
2017-10-02T17:28:42.641Z,24.30
2017-10-02T17:31:09.228Z,21.33
2017-10-02T17:33:35.805Z,18.33
2017-10-02T17:36:02.535Z,21.53
2017-10-02T17:38:29.201Z,21.13
2017-10-02T17:40:55.880Z,21.00
2017-10-02T17:43:22.473Z,20.07
2017-10-02T17:45:49.040Z,18.20
2017-10-02T17:48:15.632Z,20.40
2017-10-02T17:50:42.216Z,23.40
2017-10-02T17:53:08.898Z,21.97
2017-10-02T17:55:35.492Z,17.57
2017-10-02T17:58:02.060Z,16.50
2017-10-02T18:00:28.646Z,24.73
2017-10-02T18:02:55.228Z,22.10
2017-10-02T18:05:21.983Z,23.20
2017-10-02T18:07:48.561Z,17.63
2017-10-02T18:10:24.959Z,25.13
2017-10-02T18:12:51.521Z,15.97
2017-10-02T18:15:18.153Z,16.57
2017-10-02T18:17:44.721Z,27.50
2017-10-02T18:20:11.297Z,19.00
2017-10-02T18:22:37.889Z,21.47
2017-10-02T18:25:04.466Z,17.60
2017-10-02T18:27:39.013Z,27.80
2017-10-02T18:30:09.540Z,17.70
2017-10-02T18:32:39.381Z,17.27
2017-10-02T18:35:08.949Z,19.60
2017-10-02T18:37:38.741Z,20.50
2017-10-02T18:40:08.472Z,19.63
2017-10-02T18:42:41.049Z,24.77
2017-10-02T18:45:08.945Z,24.63
2017-10-02T18:47:39.801Z,27.00
2017-10-02T18:50:06.370Z,29.57
2017-10-02T18:52:32.944Z,26.07
2017-10-02T18:55:09.989Z,18.27
2017-10-02T18:57:36.564Z,25.47
2017-10-02T19:00:03.166Z,18.20
2017-10-02T19:02:29.744Z,26.43
2017-10-02T19:05:00.040Z,24.97
2017-10-02T19:07:26.624Z,18.97
2017-10-02T19:09:53.196Z,19.80
2017-10-02T19:12:19.814Z,15.80
2017-10-02T19:14:46.381Z,19.13
2017-10-02T19:17:13.076Z,21.90
2017-10-02T19:19:39.644Z,22.93
2017-10-02T19:22:06.323Z,19.03
2017-10-02T19:24:32.883Z,28.43
2017-10-02T19:26:59.619Z,19.47
2017-10-02T19:29:26.194Z,25.77
2017-10-02T19:31:52.772Z,25.20
2017-10-02T19:34:19.361Z,22.40
2017-10-02T19:36:45.939Z,27.73
2017-10-02T19:39:12.674Z,26.10
2017-10-02T19:41:39.259Z,32.53
2017-10-02T19:44:05.829Z,37.77
2017-10-02T19:46:32.421Z,29.90
2017-10-02T19:48:59.002Z,27.43
2017-10-02T19:51:25.732Z,30.53
2017-10-02T19:53:52.313Z,27.13
2017-10-02T19:56:18.893Z,19.77
2017-10-02T19:58:45.481Z,20.60
2017-10-02T20:01:12.061Z,19.60
2017-10-02T20:03:38.656Z,25.80
2017-10-02T20:06:05.227Z,30.33
2017-10-02T20:08:31.812Z,25.67
2017-10-02T20:10:58.412Z,23.00
2017-10-02T20:13:24.994Z,23.27
2017-10-02T20:15:51.577Z,22.67
2017-10-02T20:18:18.300Z,20.17
2017-10-02T20:20:44.965Z,26.63
2017-10-02T20:23:11.560Z,29.07
2017-10-02T20:25:38.136Z,24.77
2017-10-02T20:28:05.592Z,30.87
2017-10-02T20:30:32.268Z,26.77
2017-10-02T20:32:58.932Z,27.47
2017-10-02T20:35:25.508Z,25.50
2017-10-02T20:37:52.197Z,23.27
2017-10-02T20:40:18.813Z,30.50
2017-10-02T20:42:45.397Z,22.80
2017-10-02T20:45:11.981Z,22.27
2017-10-02T20:47:38.617Z,23.27
2017-10-02T20:50:05.221Z,28.93
2017-10-02T20:52:31.796Z,25.80
2017-10-02T20:54:58.401Z,21.83
2017-10-02T20:57:24.962Z,29.60
2017-10-02T20:59:51.553Z,37.40
2017-10-02T21:02:18.146Z,33.57
2017-10-02T21:04:45.884Z,26.07
2017-10-02T21:07:12.460Z,36.83
2017-10-02T21:09:39.056Z,36.63
2017-10-02T21:12:05.789Z,28.80
2017-10-02T21:14:32.383Z,26.93
2017-10-02T21:16:59.021Z,32.30
2017-10-02T21:19:25.587Z,30.33
2017-10-02T21:21:52.179Z,34.03
2017-10-02T21:24:18.905Z,24.33
2017-10-02T21:26:45.491Z,26.67
2017-10-02T21:29:12.085Z,25.90
2017-10-02T21:31:38.749Z,26.83
2017-10-02T21:34:05.306Z,31.93
2017-10-02T21:36:31.920Z,28.33
2017-10-02T21:38:58.501Z,26.43
2017-10-02T21:41:25.085Z,38.57
2017-10-02T21:43:51.673Z,29.53
2017-10-02T21:46:18.261Z,28.50
2017-10-02T21:48:44.854Z,36.53
2017-10-02T21:51:11.456Z,30.90
2017-10-02T21:53:38.045Z,32.77
2017-10-02T21:56:04.629Z,30.97
2017-10-02T21:58:31.201Z,29.33
2017-10-02T22:00:58.156Z,36.07
2017-10-02T22:03:25.898Z,32.70
2017-10-02T22:05:59.303Z,40.13
2017-10-02T22:08:29.417Z,38.77
2017-10-02T22:10:56.098Z,33.40
2017-10-02T22:13:22.684Z,32.20
2017-10-02T22:15:49.264Z,38.20
2017-10-02T22:18:15.869Z,33.17
2017-10-02T22:20:42.461Z,32.20
2017-10-02T22:23:09.041Z,36.90
2017-10-02T22:25:35.624Z,34.63
2017-10-02T22:28:02.210Z,34.60
2017-10-02T22:30:28.786Z,35.07
2017-10-02T22:32:55.486Z,32.93
2017-10-02T22:35:22.261Z,28.43
2017-10-02T22:37:48.859Z,32.50
2017-10-02T22:40:15.445Z,35.80
2017-10-02T22:42:42.024Z,42.43
2017-10-02T22:45:08.615Z,31.53
2017-10-02T22:47:35.188Z,24.53
2017-10-02T22:50:01.793Z,41.10
2017-10-02T22:52:28.370Z,30.17
2017-10-02T22:54:54.957Z,40.90
2017-10-02T22:57:21.541Z,33.53
2017-10-02T22:59:48.120Z,34.43
2017-10-02T23:02:14.717Z,38.47
2017-10-02T23:04:41.293Z,37.13
2017-10-02T23:07:07.933Z,40.37
2017-10-02T23:09:34.497Z,27.97
2017-10-02T23:12:01.077Z,30.53
2017-10-02T23:14:27.661Z,32.87
2017-10-02T23:16:54.237Z,29.83
2017-10-02T23:19:20.825Z,26.03
2017-10-02T23:21:47.405Z,32.53
2017-10-02T23:24:13.984Z,36.37
2017-10-02T23:26:40.568Z,40.90
2017-10-02T23:29:07.160Z,26.80
2017-10-02T23:31:33.849Z,33.50
2017-10-02T23:34:00.425Z,30.97
2017-10-02T23:36:27.000Z,31.23
2017-10-02T23:38:53.585Z,31.97
2017-10-02T23:41:20.168Z,31.13
2017-10-02T23:43:46.752Z,36.10
2017-10-02T23:46:13.330Z,28.43
2017-10-02T23:48:39.911Z,29.13
2017-10-02T23:51:06.485Z,26.47
2017-10-02T23:53:33.070Z,32.53
2017-10-02T23:55:59.650Z,28.83
2017-10-02T23:58:26.238Z,35.97
